sensor_id;sensor_type;location;lat;lon;timestamp;temperature;humidity
12602;DHT22;30282;16.436;99.370;2023-01-20T00:01:49;17.70;99.90
12602;DHT22;30282;16.436;99.370;2023-01-20T00:04:18;17.60;99.90
12602;DHT22;30282;16.436;99.370;2023-01-20T00:06:47;17.50;99.90
12602;DHT22;30282;16.436;99.370;2023-01-20T00:09:17;17.50;99.90
12602;DHT22;30282;16.436;99.370;2023-01-20T00:11:46;17.60;99.90
12602;DHT22;30282;16.436;99.370;2023-01-20T00:14:16;17.60;99.90
12602;DHT22;30282;16.436;99.370;2023-01-20T00:16:45;17.70;99.90
12602;DHT22;30282;16.436;99.370;2023-01-20T00:19:16;17.80;99.90
12602;DHT22;30282;16.436;99.370;2023-01-20T00:21:45;17.70;99.90
12602;DHT22;30282;16.436;99.370;2023-01-20T00:24:15;17.70;99.90
12602;DHT22;30282;16.436;99.370;2023-01-20T00:26:44;17.70;99.90
12602;DHT22;30282;16.436;99.370;2023-01-20T00:29:13;17.70;99.90
12602;DHT22;30282;16.436;99.370;2023-01-20T00:31:42;17.70;99.90
12602;DHT22;30282;16.436;99.370;2023-01-20T00:34:11;17.70;99.90
12602;DHT22;30282;16.436;99.370;2023-01-20T00:36:42;17.50;99.90
12602;DHT22;30282;16.436;99.370;2023-01-20T00:39:12;17.50;99.90
12602;DHT22;30282;16.436;99.370;2023-01-20T00:41:41;17.50;99.90
12602;DHT22;30282;16.436;99.370;2023-01-20T00:44:10;17.60;99.90
12602;DHT22;30282;16.436;99.370;2023-01-20T00:46:39;17.70;99.90
12602;DHT22;30282;16.436;99.370;2023-01-20T00:49:09;17.80;99.90
12602;DHT22;30282;16.436;99.370;2023-01-20T00:51:39;17.90;99.90
12602;DHT22;30282;16.436;99.370;2023-01-20T00:54:10;17.90;99.90
12602;DHT22;30282;16.436;99.370;2023-01-20T00:56:39;18.00;99.90
12602;DHT22;30282;16.436;99.370;2023-01-20T00:59:09;18.00;99.90
12602;DHT22;30282;16.436;99.370;2023-01-20T01:01:38;18.10;99.90
12602;DHT22;30282;16.436;99.370;2023-01-20T01:04:07;18.30;99.90
12602;DHT22;30282;16.436;99.370;2023-01-20T01:06:36;18.50;99.90
12602;DHT22;30282;16.436;99.370;2023-01-20T01:09:06;18.70;99.90
12602;DHT22;30282;16.436;99.370;2023-01-20T01:11:36;18.90;99.90
12602;DHT22;30282;16.436;99.370;2023-01-20T01:14:05;19.10;99.90
12602;DHT22;30282;16.436;99.370;2023-01-20T01:16:34;19.30;99.90
12602;DHT22;30282;16.436;99.370;2023-01-20T01:19:03;19.50;99.90
12602;DHT22;30282;16.436;99.370;2023-01-20T01:21:32;19.60;99.90
12602;DHT22;30282;16.436;99.370;2023-01-20T01:24:01;19.70;99.90
12602;DHT22;30282;16.436;99.370;2023-01-20T01:26:30;19.90;99.90
12602;DHT22;30282;16.436;99.370;2023-01-20T01:29:01;20.10;99.90
12602;DHT22;30282;16.436;99.370;2023-01-20T01:31:31;20.20;99.90
12602;DHT22;30282;16.436;99.370;2023-01-20T01:34:00;20.30;99.90
12602;DHT22;30282;16.436;99.370;2023-01-20T01:36:29;20.50;99.90
12602;DHT22;30282;16.436;99.370;2023-01-20T01:38:58;20.70;99.90
12602;DHT22;30282;16.436;99.370;2023-01-20T01:41:26;20.70;99.90
12602;DHT22;30282;16.436;99.370;2023-01-20T01:44:03;20.80;99.90
12602;DHT22;30282;16.436;99.370;2023-01-20T01:46:32;21.00;99.90
12602;DHT22;30282;16.436;99.370;2023-01-20T01:49:02;21.10;99.90
12602;DHT22;30282;16.436;99.370;2023-01-20T01:51:34;21.20;99.90
12602;DHT22;30282;16.436;99.370;2023-01-20T01:54:13;21.40;99.90
12602;DHT22;30282;16.436;99.370;2023-01-20T01:56:43;21.50;99.90
12602;DHT22;30282;16.436;99.370;2023-01-20T01:59:17;21.70;99.90
12602;DHT22;30282;16.436;99.370;2023-01-20T02:01:49;21.80;99.90
12602;DHT22;30282;16.436;99.370;2023-01-20T02:04:21;21.90;99.90
12602;DHT22;30282;16.436;99.370;2023-01-20T02:06:52;22.00;99.90
12602;DHT22;30282;16.436;99.370;2023-01-20T02:09:22;22.10;99.90
12602;DHT22;30282;16.436;99.370;2023-01-20T02:11:54;22.20;99.90
12602;DHT22;30282;16.436;99.370;2023-01-20T02:14:28;22.40;99.90
12602;DHT22;30282;16.436;99.370;2023-01-20T02:17:04;22.50;99.90
12602;DHT22;30282;16.436;99.370;2023-01-20T02:20:02;22.60;99.90
12602;DHT22;30282;16.436;99.370;2023-01-20T02:22:42;22.70;99.90
12602;DHT22;30282;16.436;99.370;2023-01-20T02:25:34;22.80;99.90
12602;DHT22;30282;16.436;99.370;2023-01-20T02:28:36;22.90;99.90
12602;DHT22;30282;16.436;99.370;2023-01-20T02:34:26;23.00;99.90
12602;DHT22;30282;16.436;99.370;2023-01-20T02:36:58;23.10;99.90
12602;DHT22;30282;16.436;99.370;2023-01-20T02:39:33;23.20;99.90
12602;DHT22;30282;16.436;99.370;2023-01-20T02:42:09;23.30;99.90
12602;DHT22;30282;16.436;99.370;2023-01-20T02:44:41;23.40;99.90
12602;DHT22;30282;16.436;99.370;2023-01-20T02:47:18;23.50;99.90
12602;DHT22;30282;16.436;99.370;2023-01-20T02:49:54;23.50;99.90
12602;DHT22;30282;16.436;99.370;2023-01-20T02:52:28;23.80;99.90
12602;DHT22;30282;16.436;99.370;2023-01-20T02:55:03;23.90;99.90
12602;DHT22;30282;16.436;99.370;2023-01-20T02:57:36;24.00;99.90
12602;DHT22;30282;16.436;99.370;2023-01-20T03:00:13;24.00;99.90
12602;DHT22;30282;16.436;99.370;2023-01-20T03:02:49;24.20;99.90
12602;DHT22;30282;16.436;99.370;2023-01-20T03:05:23;24.20;99.90
12602;DHT22;30282;16.436;99.370;2023-01-20T03:07:55;24.30;99.90
12602;DHT22;30282;16.436;99.370;2023-01-20T03:10:27;24.40;99.90
12602;DHT22;30282;16.436;99.370;2023-01-20T03:12:59;24.50;99.90
12602;DHT22;30282;16.436;99.370;2023-01-20T03:15:38;24.50;99.90
12602;DHT22;30282;16.436;99.370;2023-01-20T03:18:10;24.70;99.90
12602;DHT22;30282;16.436;99.370;2023-01-20T03:20:41;24.90;99.90
12602;DHT22;30282;16.436;99.370;2023-01-20T03:23:10;24.90;99.90
12602;DHT22;30282;16.436;99.370;2023-01-20T03:25:40;24.90;99.90
12602;DHT22;30282;16.436;99.370;2023-01-20T03:28:09;25.10;99.90
12602;DHT22;30282;16.436;99.370;2023-01-20T03:30:39;25.20;99.90
12602;DHT22;30282;16.436;99.370;2023-01-20T03:33:08;25.30;99.90
12602;DHT22;30282;16.436;99.370;2023-01-20T03:35:41;25.30;99.90
12602;DHT22;30282;16.436;99.370;2023-01-20T03:38:11;25.40;99.90
12602;DHT22;30282;16.436;99.370;2023-01-20T03:40:45;25.50;99.90
12602;DHT22;30282;16.436;99.370;2023-01-20T03:43:21;25.60;99.90
12602;DHT22;30282;16.436;99.370;2023-01-20T03:45:56;25.60;99.90
12602;DHT22;30282;16.436;99.370;2023-01-20T03:48:33;25.60;99.90
12602;DHT22;30282;16.436;99.370;2023-01-20T03:51:12;25.60;99.90
12602;DHT22;30282;16.436;99.370;2023-01-20T03:53:50;25.70;99.90
12602;DHT22;30282;16.436;99.370;2023-01-20T03:56:22;25.70;99.90
12602;DHT22;30282;16.436;99.370;2023-01-20T03:58:53;25.80;99.90
12602;DHT22;30282;16.436;99.370;2023-01-20T04:01:29;25.90;99.90
12602;DHT22;30282;16.436;99.370;2023-01-20T04:04:01;26.10;99.90
12602;DHT22;30282;16.436;99.370;2023-01-20T04:06:33;26.30;99.90
12602;DHT22;30282;16.436;99.370;2023-01-20T04:09:04;26.40;99.90
12602;DHT22;30282;16.436;99.370;2023-01-20T04:11:35;26.60;99.90
12602;DHT22;30282;16.436;99.370;2023-01-20T04:14:04;26.80;99.90
12602;DHT22;30282;16.436;99.370;2023-01-20T04:16:36;26.90;99.90
12602;DHT22;30282;16.436;99.370;2023-01-20T04:19:05;27.10;99.90
12602;DHT22;30282;16.436;99.370;2023-01-20T04:21:40;27.10;99.90
12602;DHT22;30282;16.436;99.370;2023-01-20T04:24:14;27.20;99.90
12602;DHT22;30282;16.436;99.370;2023-01-20T04:26:44;27.30;99.90
12602;DHT22;30282;16.436;99.370;2023-01-20T04:29:13;27.50;99.90
12602;DHT22;30282;16.436;99.370;2023-01-20T04:31:42;27.70;99.90
12602;DHT22;30282;16.436;99.370;2023-01-20T04:34:12;27.90;99.90
12602;DHT22;30282;16.436;99.370;2023-01-20T04:36:44;28.00;99.90
12602;DHT22;30282;16.436;99.370;2023-01-20T04:39:13;28.20;99.90
12602;DHT22;30282;16.436;99.370;2023-01-20T04:41:42;28.20;99.90
12602;DHT22;30282;16.436;99.370;2023-01-20T04:44:11;28.30;99.90
12602;DHT22;30282;16.436;99.370;2023-01-20T04:46:40;28.40;99.90
12602;DHT22;30282;16.436;99.370;2023-01-20T04:49:09;28.50;99.90
12602;DHT22;30282;16.436;99.370;2023-01-20T04:51:38;28.70;99.90
12602;DHT22;30282;16.436;99.370;2023-01-20T04:54:09;28.80;99.90
12602;DHT22;30282;16.436;99.370;2023-01-20T04:56:38;29.00;99.90
12602;DHT22;30282;16.436;99.370;2023-01-20T04:59:07;29.00;99.90
12602;DHT22;30282;16.436;99.370;2023-01-20T05:01:36;29.00;99.90
12602;DHT22;30282;16.436;99.370;2023-01-20T05:04:06;29.10;99.90
12602;DHT22;30282;16.436;99.370;2023-01-20T05:06:35;29.20;99.90
12602;DHT22;30282;16.436;99.370;2023-01-20T05:09:11;29.30;99.90
12602;DHT22;30282;16.436;99.370;2023-01-20T05:11:41;29.40;99.90
12602;DHT22;30282;16.436;99.370;2023-01-20T05:14:11;29.30;99.90
12602;DHT22;30282;16.436;99.370;2023-01-20T05:16:40;29.30;99.90
12602;DHT22;30282;16.436;99.370;2023-01-20T05:19:11;29.50;99.90
12602;DHT22;30282;16.436;99.370;2023-01-20T05:21:40;29.80;99.90
12602;DHT22;30282;16.436;99.370;2023-01-20T05:24:11;29.80;99.90
12602;DHT22;30282;16.436;99.370;2023-01-20T05:26:40;30.00;99.90
12602;DHT22;30282;16.436;99.370;2023-01-20T05:29:09;30.10;99.90
12602;DHT22;30282;16.436;99.370;2023-01-20T05:31:38;30.20;99.90
12602;DHT22;30282;16.436;99.370;2023-01-20T05:34:09;30.20;99.90
12602;DHT22;30282;16.436;99.370;2023-01-20T05:36:38;30.30;99.90
12602;DHT22;30282;16.436;99.370;2023-01-20T05:39:07;30.50;99.90
12602;DHT22;30282;16.436;99.370;2023-01-20T05:41:38;30.60;99.90
12602;DHT22;30282;16.436;99.370;2023-01-20T05:44:07;30.50;99.90
12602;DHT22;30282;16.436;99.370;2023-01-20T05:46:36;30.50;99.90
12602;DHT22;30282;16.436;99.370;2023-01-20T05:49:06;30.60;99.90
12602;DHT22;30282;16.436;99.370;2023-01-20T05:51:35;30.70;99.90
12602;DHT22;30282;16.436;99.370;2023-01-20T05:54:04;30.70;99.90
12602;DHT22;30282;16.436;99.370;2023-01-20T05:56:33;30.70;99.90
12602;DHT22;30282;16.436;99.370;2023-01-20T05:59:04;30.70;99.90
12602;DHT22;30282;16.436;99.370;2023-01-20T06:01:34;30.80;99.90
12602;DHT22;30282;16.436;99.370;2023-01-20T06:04:03;30.90;99.90
12602;DHT22;30282;16.436;99.370;2023-01-20T06:06:32;30.90;99.90
12602;DHT22;30282;16.436;99.370;2023-01-20T06:09:01;30.80;99.90
12602;DHT22;30282;16.436;99.370;2023-01-20T06:11:32;30.70;99.90
12602;DHT22;30282;16.436;99.370;2023-01-20T06:14:01;30.70;99.90
12602;DHT22;30282;16.436;99.370;2023-01-20T06:16:32;30.70;99.90
12602;DHT22;30282;16.436;99.370;2023-01-20T06:19:01;30.60;99.90
12602;DHT22;30282;16.436;99.370;2023-01-20T06:21:30;30.40;99.90
12602;DHT22;30282;16.436;99.370;2023-01-20T06:23:58;30.30;99.90
12602;DHT22;30282;16.436;99.370;2023-01-20T06:26:27;30.40;99.90
12602;DHT22;30282;16.436;99.370;2023-01-20T06:28:58;30.30;99.90
12602;DHT22;30282;16.436;99.370;2023-01-20T06:31:27;30.40;99.90
12602;DHT22;30282;16.436;99.370;2023-01-20T06:33:58;30.30;99.90
12602;DHT22;30282;16.436;99.370;2023-01-20T06:36:27;30.30;99.90
12602;DHT22;30282;16.436;99.370;2023-01-20T06:38:56;30.40;99.90
12602;DHT22;30282;16.436;99.370;2023-01-20T06:41:25;30.50;99.90
12602;DHT22;30282;16.436;99.370;2023-01-20T06:43:54;30.60;99.90
12602;DHT22;30282;16.436;99.370;2023-01-20T06:46:23;30.70;99.90
12602;DHT22;30282;16.436;99.370;2023-01-20T06:48:52;30.70;99.90
12602;DHT22;30282;16.436;99.370;2023-01-20T06:51:28;30.60;99.90
12602;DHT22;30282;16.436;99.370;2023-01-20T06:53:59;30.60;99.90
12602;DHT22;30282;16.436;99.370;2023-01-20T06:56:28;30.50;99.90
12602;DHT22;30282;16.436;99.370;2023-01-20T06:58:57;30.40;99.90
12602;DHT22;30282;16.436;99.370;2023-01-20T07:01:27;30.40;99.90
12602;DHT22;30282;16.436;99.370;2023-01-20T07:03:57;30.50;99.90
12602;DHT22;30282;16.436;99.370;2023-01-20T07:06:29;30.60;99.90
12602;DHT22;30282;16.436;99.370;2023-01-20T07:08:59;30.40;99.90
12602;DHT22;30282;16.436;99.370;2023-01-20T07:11:28;30.40;99.90
12602;DHT22;30282;16.436;99.370;2023-01-20T07:13:58;30.40;99.90
12602;DHT22;30282;16.436;99.370;2023-01-20T07:16:27;30.50;99.90
12602;DHT22;30282;16.436;99.370;2023-01-20T07:18:56;30.50;99.90
12602;DHT22;30282;16.436;99.370;2023-01-20T07:21:27;30.60;99.90
12602;DHT22;30282;16.436;99.370;2023-01-20T07:23:59;30.60;99.90
12602;DHT22;30282;16.436;99.370;2023-01-20T07:26:28;30.60;99.90
12602;DHT22;30282;16.436;99.370;2023-01-20T07:28:57;30.60;99.90
12602;DHT22;30282;16.436;99.370;2023-01-20T07:31:28;30.70;99.90
12602;DHT22;30282;16.436;99.370;2023-01-20T07:33:57;30.60;99.90
12602;DHT22;30282;16.436;99.370;2023-01-20T07:36:28;30.60;99.90
12602;DHT22;30282;16.436;99.370;2023-01-20T07:38:57;30.60;99.90
12602;DHT22;30282;16.436;99.370;2023-01-20T07:41:26;30.60;99.90
12602;DHT22;30282;16.436;99.370;2023-01-20T07:43:55;30.50;99.90
12602;DHT22;30282;16.436;99.370;2023-01-20T07:46:24;30.50;99.90
12602;DHT22;30282;16.436;99.370;2023-01-20T07:48:53;30.50;99.90
12602;DHT22;30282;16.436;99.370;2023-01-20T07:51:23;30.50;99.90
12602;DHT22;30282;16.436;99.370;2023-01-20T07:53:54;30.50;99.90
12602;DHT22;30282;16.436;99.370;2023-01-20T07:56:27;30.50;99.90
12602;DHT22;30282;16.436;99.370;2023-01-20T07:58:57;30.50;99.90
12602;DHT22;30282;16.436;99.370;2023-01-20T08:01:30;30.50;99.90
12602;DHT22;30282;16.436;99.370;2023-01-20T08:03:59;30.50;99.90
12602;DHT22;30282;16.436;99.370;2023-01-20T08:06:29;30.50;99.90
12602;DHT22;30282;16.436;99.370;2023-01-20T08:09:02;30.50;99.90
12602;DHT22;30282;16.436;99.370;2023-01-20T08:11:31;30.50;99.90
12602;DHT22;30282;16.436;99.370;2023-01-20T08:14:00;30.50;99.90
12602;DHT22;30282;16.436;99.370;2023-01-20T08:16:29;30.40;99.90
12602;DHT22;30282;16.436;99.370;2023-01-20T08:18:58;30.40;99.90
12602;DHT22;30282;16.436;99.370;2023-01-20T08:21:29;30.40;99.90
12602;DHT22;30282;16.436;99.370;2023-01-20T08:24:01;30.50;99.90
12602;DHT22;30282;16.436;99.370;2023-01-20T08:26:32;30.40;99.90
12602;DHT22;30282;16.436;99.370;2023-01-20T08:29:02;30.40;99.90
12602;DHT22;30282;16.436;99.370;2023-01-20T08:31:32;30.40;99.90
12602;DHT22;30282;16.436;99.370;2023-01-20T08:34:01;30.40;99.90
12602;DHT22;30282;16.436;99.370;2023-01-20T08:36:32;30.40;99.90
12602;DHT22;30282;16.436;99.370;2023-01-20T08:39:06;30.30;99.90
12602;DHT22;30282;16.436;99.370;2023-01-20T08:41:36;30.30;99.90
12602;DHT22;30282;16.436;99.370;2023-01-20T08:44:08;30.30;99.90
12602;DHT22;30282;16.436;99.370;2023-01-20T08:46:40;30.30;99.90
12602;DHT22;30282;16.436;99.370;2023-01-20T08:49:10;30.30;99.90
12602;DHT22;30282;16.436;99.370;2023-01-20T08:51:46;30.30;99.90
12602;DHT22;30282;16.436;99.370;2023-01-20T08:54:20;30.30;99.90
12602;DHT22;30282;16.436;99.370;2023-01-20T08:56:50;30.30;99.90
12602;DHT22;30282;16.436;99.370;2023-01-20T08:59:22;30.30;99.90
12602;DHT22;30282;16.436;99.370;2023-01-20T09:01:52;30.20;99.90
12602;DHT22;30282;16.436;99.370;2023-01-20T09:04:21;30.30;99.90
12602;DHT22;30282;16.436;99.370;2023-01-20T09:06:50;30.30;99.90
12602;DHT22;30282;16.436;99.370;2023-01-20T09:09:23;30.30;99.90
12602;DHT22;30282;16.436;99.370;2023-01-20T09:11:53;30.20;99.90
12602;DHT22;30282;16.436;99.370;2023-01-20T09:14:24;30.10;99.90
12602;DHT22;30282;16.436;99.370;2023-01-20T09:16:56;30.10;99.90
12602;DHT22;30282;16.436;99.370;2023-01-20T09:19:26;30.10;99.90
12602;DHT22;30282;16.436;99.370;2023-01-20T09:21:56;30.10;99.90
12602;DHT22;30282;16.436;99.370;2023-01-20T09:24:27;30.10;99.90
12602;DHT22;30282;16.436;99.370;2023-01-20T09:26:56;30.10;99.90
12602;DHT22;30282;16.436;99.370;2023-01-20T09:29:25;30.10;99.90
12602;DHT22;30282;16.436;99.370;2023-01-20T09:31:55;30.10;99.90
12602;DHT22;30282;16.436;99.370;2023-01-20T09:34:27;30.00;99.90
12602;DHT22;30282;16.436;99.370;2023-01-20T09:36:57;30.00;99.90
12602;DHT22;30282;16.436;99.370;2023-01-20T09:39:49;30.00;99.90
12602;DHT22;30282;16.436;99.370;2023-01-20T09:42:45;29.90;99.90
12602;DHT22;30282;16.436;99.370;2023-01-20T09:45:40;30.00;99.90
12602;DHT22;30282;16.436;99.370;2023-01-20T09:48:15;29.90;99.90
12602;DHT22;30282;16.436;99.370;2023-01-20T09:51:06;29.90;99.90
12602;DHT22;30282;16.436;99.370;2023-01-20T09:54:03;29.80;99.90
12602;DHT22;30282;16.436;99.370;2023-01-20T09:56:40;29.70;99.90
12602;DHT22;30282;16.436;99.370;2023-01-20T09:59:15;29.60;99.90
12602;DHT22;30282;16.436;99.370;2023-01-20T10:01:48;29.60;99.90
12602;DHT22;30282;16.436;99.370;2023-01-20T10:04:22;29.50;99.90
12602;DHT22;30282;16.436;99.370;2023-01-20T10:06:53;29.40;99.90
12602;DHT22;30282;16.436;99.370;2023-01-20T10:09:27;29.40;99.90
12602;DHT22;30282;16.436;99.370;2023-01-20T10:12:06;29.30;99.90
12602;DHT22;30282;16.436;99.370;2023-01-20T10:14:39;29.30;99.90
12602;DHT22;30282;16.436;99.370;2023-01-20T10:17:12;29.20;99.90
12602;DHT22;30282;16.436;99.370;2023-01-20T10:19:46;29.20;99.90
12602;DHT22;30282;16.436;99.370;2023-01-20T10:22:21;29.20;99.90
12602;DHT22;30282;16.436;99.370;2023-01-20T10:24:58;29.10;99.90
12602;DHT22;30282;16.436;99.370;2023-01-20T10:27:35;29.00;99.90
12602;DHT22;30282;16.436;99.370;2023-01-20T10:30:11;28.90;99.90
12602;DHT22;30282;16.436;99.370;2023-01-20T10:32:46;28.90;99.90
12602;DHT22;30282;16.436;99.370;2023-01-20T10:35:18;28.80;99.90
12602;DHT22;30282;16.436;99.370;2023-01-20T10:37:47;28.70;99.90
12602;DHT22;30282;16.436;99.370;2023-01-20T10:40:24;28.60;99.90
12602;DHT22;30282;16.436;99.370;2023-01-20T10:42:58;28.50;99.90
12602;DHT22;30282;16.436;99.370;2023-01-20T10:45:35;28.50;99.90
12602;DHT22;30282;16.436;99.370;2023-01-20T10:48:14;28.40;99.90
12602;DHT22;30282;16.436;99.370;2023-01-20T10:50:52;28.30;99.90
12602;DHT22;30282;16.436;99.370;2023-01-20T10:53:37;28.20;99.90
12602;DHT22;30282;16.436;99.370;2023-01-20T10:59:05;28.10;99.90
12602;DHT22;30282;16.436;99.370;2023-01-20T11:01:35;28.00;99.90
12602;DHT22;30282;16.436;99.370;2023-01-20T11:04:05;27.90;99.90
12602;DHT22;30282;16.436;99.370;2023-01-20T11:06:34;27.80;99.90
12602;DHT22;30282;16.436;99.370;2023-01-20T11:09:16;27.70;99.90
12602;DHT22;30282;16.436;99.370;2023-01-20T11:11:47;27.60;99.90
12602;DHT22;30282;16.436;99.370;2023-01-20T11:14:20;27.60;99.90
12602;DHT22;30282;16.436;99.370;2023-01-20T11:16:53;27.60;99.90
12602;DHT22;30282;16.436;99.370;2023-01-20T11:19:24;27.50;99.90
12602;DHT22;30282;16.436;99.370;2023-01-20T11:21:54;27.40;99.90
12602;DHT22;30282;16.436;99.370;2023-01-20T11:24:37;27.30;99.90
12602;DHT22;30282;16.436;99.370;2023-01-20T11:27:13;27.20;99.90
12602;DHT22;30282;16.436;99.370;2023-01-20T11:29:52;27.00;99.90
12602;DHT22;30282;16.436;99.370;2023-01-20T11:32:26;27.00;99.90
12602;DHT22;30282;16.436;99.370;2023-01-20T11:34:56;27.00;99.90
12602;DHT22;30282;16.436;99.370;2023-01-20T11:37:26;26.90;99.90
12602;DHT22;30282;16.436;99.370;2023-01-20T11:40:18;26.90;99.90
12602;DHT22;30282;16.436;99.370;2023-01-20T11:42:49;26.90;99.90
12602;DHT22;30282;16.436;99.370;2023-01-20T11:45:28;26.80;99.90
12602;DHT22;30282;16.436;99.370;2023-01-20T11:48:03;26.70;99.90
12602;DHT22;30282;16.436;99.370;2023-01-20T11:50:35;26.70;99.90
12602;DHT22;30282;16.436;99.370;2023-01-20T11:53:26;26.60;99.90
12602;DHT22;30282;16.436;99.370;2023-01-20T11:56:02;26.50;99.90
12602;DHT22;30282;16.436;99.370;2023-01-20T11:58:33;26.40;99.90
12602;DHT22;30282;16.436;99.370;2023-01-20T12:01:23;26.30;99.90
12602;DHT22;30282;16.436;99.370;2023-01-20T12:04:21;26.30;99.90
12602;DHT22;30282;16.436;99.370;2023-01-20T12:06:54;26.30;99.90
12602;DHT22;30282;16.436;99.370;2023-01-20T12:09:26;26.20;99.90
12602;DHT22;30282;16.436;99.370;2023-01-20T12:11:59;26.20;99.90
12602;DHT22;30282;16.436;99.370;2023-01-20T12:14:31;26.10;99.90
12602;DHT22;30282;16.436;99.370;2023-01-20T12:17:15;26.00;99.90
12602;DHT22;30282;16.436;99.370;2023-01-20T12:20:04;26.00;99.90
12602;DHT22;30282;16.436;99.370;2023-01-20T12:22:40;25.90;99.90
12602;DHT22;30282;16.436;99.370;2023-01-20T12:25:23;25.80;99.90
12602;DHT22;30282;16.436;99.370;2023-01-20T12:27:55;25.80;99.90
12602;DHT22;30282;16.436;99.370;2023-01-20T12:30:40;25.80;99.90
12602;DHT22;30282;16.436;99.370;2023-01-20T12:33:21;25.80;99.90
12602;DHT22;30282;16.436;99.370;2023-01-20T12:42:11;25.70;99.90
12602;DHT22;30282;16.436;99.370;2023-01-20T12:44:51;25.70;99.90
12602;DHT22;30282;16.436;99.370;2023-01-20T12:47:36;25.60;99.90
12602;DHT22;30282;16.436;99.370;2023-01-20T12:50:23;25.50;99.90
12602;DHT22;30282;16.436;99.370;2023-01-20T12:53:03;25.50;99.90
12602;DHT22;30282;16.436;99.370;2023-01-20T12:55:50;25.50;99.90
12602;DHT22;30282;16.436;99.370;2023-01-20T12:58:33;25.40;99.90
12602;DHT22;30282;16.436;99.370;2023-01-20T13:01:28;25.40;99.90
12602;DHT22;30282;16.436;99.370;2023-01-20T13:04:31;25.30;99.90
12602;DHT22;30282;16.436;99.370;2023-01-20T13:07:21;25.20;99.90
12602;DHT22;30282;16.436;99.370;2023-01-20T13:10:15;25.10;99.90
12602;DHT22;30282;16.436;99.370;2023-01-20T13:12:52;25.10;99.90
12602;DHT22;30282;16.436;99.370;2023-01-20T13:15:27;25.00;99.90
12602;DHT22;30282;16.436;99.370;2023-01-20T13:18:21;24.90;99.90
12602;DHT22;30282;16.436;99.370;2023-01-20T13:20:52;24.90;99.90
12602;DHT22;30282;16.436;99.370;2023-01-20T13:23:26;24.90;99.90
12602;DHT22;30282;16.436;99.370;2023-01-20T13:25:57;24.90;99.90
12602;DHT22;30282;16.436;99.370;2023-01-20T13:28:27;24.80;99.90
12602;DHT22;30282;16.436;99.370;2023-01-20T13:30:57;24.70;99.90
12602;DHT22;30282;16.436;99.370;2023-01-20T13:33:32;24.70;99.90
12602;DHT22;30282;16.436;99.370;2023-01-20T13:36:14;24.60;99.90
12602;DHT22;30282;16.436;99.370;2023-01-20T13:38:47;24.40;99.90
12602;DHT22;30282;16.436;99.370;2023-01-20T13:41:46;24.40;99.90
12602;DHT22;30282;16.436;99.370;2023-01-20T13:44:32;24.20;99.90
12602;DHT22;30282;16.436;99.370;2023-01-20T13:47:02;24.20;99.90
12602;DHT22;30282;16.436;99.370;2023-01-20T13:49:49;24.20;99.90
12602;DHT22;30282;16.436;99.370;2023-01-20T13:55:29;24.10;99.90
12602;DHT22;30282;16.436;99.370;2023-01-20T13:58:17;24.00;99.90
12602;DHT22;30282;16.436;99.370;2023-01-20T14:00:48;23.90;99.90
12602;DHT22;30282;16.436;99.370;2023-01-20T14:03:21;23.80;99.90
12602;DHT22;30282;16.436;99.370;2023-01-20T14:05:52;23.80;99.90
12602;DHT22;30282;16.436;99.370;2023-01-20T14:08:22;23.80;99.90
12602;DHT22;30282;16.436;99.370;2023-01-20T14:11:03;23.80;99.90
12602;DHT22;30282;16.436;99.370;2023-01-20T14:13:34;23.60;99.90
12602;DHT22;30282;16.436;99.370;2023-01-20T14:16:04;23.60;99.90
12602;DHT22;30282;16.436;99.370;2023-01-20T14:18:33;23.50;99.90
12602;DHT22;30282;16.436;99.370;2023-01-20T14:21:04;23.60;99.90
12602;DHT22;30282;16.436;99.370;2023-01-20T14:23:44;23.70;99.90
12602;DHT22;30282;16.436;99.370;2023-01-20T14:26:20;23.70;99.90
12602;DHT22;30282;16.436;99.370;2023-01-20T14:28:51;23.60;99.90
12602;DHT22;30282;16.436;99.370;2023-01-20T14:31:33;23.50;99.90
12602;DHT22;30282;16.436;99.370;2023-01-20T14:34:27;23.40;99.90
12602;DHT22;30282;16.436;99.370;2023-01-20T14:37:00;23.20;99.90
12602;DHT22;30282;16.436;99.370;2023-01-20T14:39:30;23.10;99.90
12602;DHT22;30282;16.436;99.370;2023-01-20T14:42:01;23.00;99.90
12602;DHT22;30282;16.436;99.370;2023-01-20T14:44:31;23.00;99.90
12602;DHT22;30282;16.436;99.370;2023-01-20T14:47:01;23.00;99.90
12602;DHT22;30282;16.436;99.370;2023-01-20T14:49:33;23.00;99.90
12602;DHT22;30282;16.436;99.370;2023-01-20T14:52:05;23.10;99.90
12602;DHT22;30282;16.436;99.370;2023-01-20T14:54:38;23.10;99.90
12602;DHT22;30282;16.436;99.370;2023-01-20T14:57:20;23.20;99.90
12602;DHT22;30282;16.436;99.370;2023-01-20T15:02:52;23.30;99.90
12602;DHT22;30282;16.436;99.370;2023-01-20T15:05:25;23.20;99.90
12602;DHT22;30282;16.436;99.370;2023-01-20T15:08:21;23.20;99.90
12602;DHT22;30282;16.436;99.370;2023-01-20T15:11:16;23.10;99.90
12602;DHT22;30282;16.436;99.370;2023-01-20T15:14:06;23.00;99.90
12602;DHT22;30282;16.436;99.370;2023-01-20T15:16:48;23.00;99.90
12602;DHT22;30282;16.436;99.370;2023-01-20T15:19:34;23.00;99.90
12602;DHT22;30282;16.436;99.370;2023-01-20T15:22:21;23.00;99.90
12602;DHT22;30282;16.436;99.370;2023-01-20T15:24:51;22.90;99.90
12602;DHT22;30282;16.436;99.370;2023-01-20T15:27:31;22.90;99.90
12602;DHT22;30282;16.436;99.370;2023-01-20T15:30:17;22.80;99.90
12602;DHT22;30282;16.436;99.370;2023-01-20T15:32:48;22.70;99.90
12602;DHT22;30282;16.436;99.370;2023-01-20T15:35:19;22.70;99.90
12602;DHT22;30282;16.436;99.370;2023-01-20T15:37:52;22.70;99.90
12602;DHT22;30282;16.436;99.370;2023-01-20T15:40:22;22.70;99.90
12602;DHT22;30282;16.436;99.370;2023-01-20T15:42:52;22.70;99.90
12602;DHT22;30282;16.436;99.370;2023-01-20T15:45:24;22.70;99.90
12602;DHT22;30282;16.436;99.370;2023-01-20T15:47:53;22.80;99.90
12602;DHT22;30282;16.436;99.370;2023-01-20T15:50:23;22.70;99.90
12602;DHT22;30282;16.436;99.370;2023-01-20T15:52:53;22.70;99.90
12602;DHT22;30282;16.436;99.370;2023-01-20T15:55:25;22.60;99.90
12602;DHT22;30282;16.436;99.370;2023-01-20T15:57:54;22.50;99.90
12602;DHT22;30282;16.436;99.370;2023-01-20T16:00:25;22.40;99.90
12602;DHT22;30282;16.436;99.370;2023-01-20T16:02:59;22.10;99.90
12602;DHT22;30282;16.436;99.370;2023-01-20T16:05:28;21.90;99.90
12602;DHT22;30282;16.436;99.370;2023-01-20T16:07:57;21.80;99.90
12602;DHT22;30282;16.436;99.370;2023-01-20T16:10:26;21.80;99.90
12602;DHT22;30282;16.436;99.370;2023-01-20T16:12:55;21.90;99.90